Traverse City, MI

8:17 PM EDT on May 04, 2015 (GMT -0400)
Cherry Capital | | Change Station
CLOSE
Current Station
Airport
Location: Traverse City,
Elevation: 623 ft
Nearby Weather Stations

Elev 623 ft 44.74 °N, 85.59 °W | Updated 24 minutes ago

Mostly Cloudy
Mostly Cloudy
54 °F
Feels Like 54 °F
N
6
Wind Variable Wind from NE

Today
High -- | Low -- °F
--% Chance of Precip.
Yesterday
High -- | Low -- °F
Precip. -- in
6:28 AM 8:50 PM
Full, 99% visible
Pressure 30.20 in
Visibility 10.0 miles
Clouds Mostly Cloudy 25000 ft
Dew Point 38 °F
Humidity 55%
Rainfall 0.02 in
Snow Depth Not available.
UV 0 out of 12
Pollen 8.90 out of 12
Air Quality Not available.
Flu Activity Regional
METAR KTVC 042353Z 04005KT 10SM BKN250 12/03 A3020 RMK AO2 SLP226 T01220033 10183 20122 51012

More Conditions Fewer Conditions

Pressure 30.20 in
Visibility 10.0 miles
Clouds Mostly Cloudy 25000 ft
Dew Point 38 °F
Humidity 55%
Rainfall 0.02 in
Snow Depth Not available.
UV 0 out of 12
Pollen 8.90 out of 12
Air Quality Not available.
Flu Activity Regional
METAR KTVC 042353Z 04005KT 10SM BKN250 12/03 A3020 RMK AO2 SLP226 T01220033 10183 20122 51012

More Conditions Fewer Conditions

Nepal has a long way to go to dig out and rebuild from a devastating earthquake. We have teamed up with several charities and organizations to make contributing to the relief effort as easy as possible.
How you can help: Portlight Strategies | Red Cross
Nowcast | as of 7:00 PM EDT on May 4, 2015

At 8 PM...mostly clear. Temperature 58. North winds 7 mph. At 10 PM...mostly clear. Temperature 52. Light winds. At 12 am...mostly clear. Temperature 45. Light winds. At 2 am...mostly clear. Temperature 42. Light winds.

×

10-Day Weather Forecast

Almanac

Astronomy

May. 04, 2015 Rise Set
Actual Time
Civil Twilight
Nautical Twilight
Astronomical Twilight
Moon
Length of Visible Light
Length of Day
Tomorrow will be .
, % of the Moon is Illuminated

Today's Extremes

State Highs State Lows

Community

WunderPhotos

Upload Photos

1,818,738 photos uploaded!

WunderBlogs® & News

Nearby

Air Quality

  Air Quality AQ Index Pollutant
Not available.

Snow Depth

Station Depth Elevation

Earthquake Activity

City Distance Mag. Time & Date
Minimum magnitude displayed is 2.5.

Coastal Water Temperatures

Place Temperature

Stations

Nearby Weather Stations

Station Location Temp. Windchill Dew Point Humidity Wind Precip. Elev Updated Type